createdAt,value
2017-08-19T00:00:04.515Z,1011.0
2017-08-19T00:01:05.260Z,1011.0
2017-08-19T00:02:06.052Z,1011.1
2017-08-19T00:03:06.752Z,1011.0
2017-08-19T00:04:07.427Z,1011.1
2017-08-19T00:05:08.107Z,1011.1
2017-08-19T00:06:08.789Z,1011.1
2017-08-19T00:07:09.793Z,1011.1
2017-08-19T00:08:10.579Z,1011.1
2017-08-19T00:09:11.278Z,1011.1
2017-08-19T00:10:11.950Z,1011.1
2017-08-19T00:11:12.703Z,1011.1
2017-08-19T00:12:13.376Z,1011.2
2017-08-19T00:13:14.472Z,1011.2
2017-08-19T00:14:15.220Z,1011.1
2017-08-19T00:15:15.908Z,1011.2
2017-08-19T00:16:16.595Z,1011.2
2017-08-19T00:17:17.300Z,1011.2
2017-08-19T00:18:18.174Z,1011.2
2017-08-19T00:19:19.150Z,1011.3
2017-08-19T00:20:19.828Z,1011.2
2017-08-19T00:21:20.512Z,1011.3
2017-08-19T00:22:21.193Z,1011.2
2017-08-19T00:23:21.890Z,1011.3
2017-08-19T00:24:22.573Z,1011.3
2017-08-19T00:25:23.606Z,1011.3
2017-08-19T00:26:24.293Z,1011.3
2017-08-19T00:27:24.989Z,1011.4
2017-08-19T00:28:26.080Z,1011.3
2017-08-19T00:29:26.763Z,1011.3
2017-08-19T00:30:27.440Z,1011.4
2017-08-19T00:31:28.376Z,1011.4
2017-08-19T00:32:29.078Z,1011.4
2017-08-19T00:33:29.796Z,1011.4
2017-08-19T00:34:30.476Z,1011.4
2017-08-19T00:35:31.165Z,1011.4
2017-08-19T00:36:31.937Z,1011.4
2017-08-19T00:37:32.867Z,1011.4
2017-08-19T00:38:33.585Z,1011.4
2017-08-19T00:39:34.259Z,1011.4
2017-08-19T00:40:34.967Z,1011.3
2017-08-19T00:41:35.631Z,1011.3
2017-08-19T00:42:36.323Z,1011.3
2017-08-19T00:43:37.298Z,1011.4
2017-08-19T00:44:37.978Z,1011.3
2017-08-19T00:45:38.677Z,1011.3
2017-08-19T00:46:39.356Z,1011.3
2017-08-19T00:47:40.050Z,1011.3
2017-08-19T00:48:40.790Z,1011.4
2017-08-19T00:49:41.726Z,1011.4
2017-08-19T00:50:42.421Z,1011.3
2017-08-19T00:51:43.091Z,1011.3
2017-08-19T00:52:43.799Z,1011.3
2017-08-19T00:53:44.480Z,1011.3
2017-08-19T00:54:45.185Z,1011.3
2017-08-19T00:55:46.103Z,1011.3
2017-08-19T00:56:46.801Z,1011.4
2017-08-19T00:57:47.499Z,1011.4
2017-08-19T00:58:48.191Z,1011.4
2017-08-19T00:59:48.963Z,1011.3
2017-08-19T01:00:49.684Z,1011.4
2017-08-19T01:01:50.685Z,1011.4
2017-08-19T01:02:51.357Z,1011.4
2017-08-19T01:03:52.043Z,1011.3
2017-08-19T01:04:52.889Z,1011.4
2017-08-19T01:05:53.617Z,1011.4
2017-08-19T01:06:54.298Z,1011.4
2017-08-19T01:07:54.986Z,1011.4
2017-08-19T01:08:55.989Z,1011.4
2017-08-19T01:09:56.683Z,1011.4
2017-08-19T01:10:57.436Z,1011.4
2017-08-19T01:11:58.175Z,1011.4
2017-08-19T01:12:58.918Z,1011.4
2017-08-19T01:13:59.688Z,1011.4
2017-08-19T01:15:00.593Z,1011.4
2017-08-19T01:16:01.281Z,1011.4
2017-08-19T01:17:01.958Z,1011.4
2017-08-19T01:18:02.657Z,1011.4
2017-08-19T01:19:03.438Z,1011.4
2017-08-19T01:20:04.146Z,1011.4
2017-08-19T01:21:05.070Z,1011.4
2017-08-19T01:22:05.777Z,1011.5
2017-08-19T01:23:06.564Z,1011.4
2017-08-19T01:24:07.256Z,1011.4
2017-08-19T01:25:07.967Z,1011.4
2017-08-19T01:26:08.633Z,1011.4
2017-08-19T01:27:09.575Z,1011.5
2017-08-19T01:28:10.310Z,1011.4
2017-08-19T01:29:11.049Z,1011.5
2017-08-19T01:30:11.758Z,1011.5
2017-08-19T01:31:12.498Z,1011.5
2017-08-19T01:32:13.150Z,1011.5
2017-08-19T01:33:14.086Z,1011.5
2017-08-19T01:34:14.850Z,1011.6
2017-08-19T01:35:15.561Z,1011.5
2017-08-19T01:36:16.222Z,1011.5
2017-08-19T01:37:16.963Z,1011.5
2017-08-19T01:38:17.646Z,1011.5
2017-08-19T01:39:18.798Z,1011.5
2017-08-19T01:40:19.520Z,1011.5
2017-08-19T01:41:20.254Z,1011.5
2017-08-19T01:42:20.989Z,1011.5
2017-08-19T01:43:21.722Z,1011.5
2017-08-19T01:44:22.374Z,1011.5
2017-08-19T01:45:23.378Z,1011.5
2017-08-19T01:46:24.074Z,1011.5
2017-08-19T01:47:24.751Z,1011.5
2017-08-19T01:48:25.423Z,1011.4
2017-08-19T01:49:26.126Z,1011.5
2017-08-19T01:50:26.885Z,1011.5
2017-08-19T01:51:27.872Z,1011.4
2017-08-19T01:52:28.535Z,1011.5
2017-08-19T01:53:29.249Z,1011.5
2017-08-19T01:54:30.041Z,1011.5
2017-08-19T01:55:30.721Z,1011.5
2017-08-19T01:56:31.408Z,1011.5
2017-08-19T01:57:32.347Z,1011.4
2017-08-19T01:58:33.057Z,1011.4
2017-08-19T01:59:33.807Z,1011.4
2017-08-19T02:00:34.502Z,1011.4
2017-08-19T02:01:35.197Z,1011.4
2017-08-19T02:02:35.879Z,1011.4
2017-08-19T02:03:36.896Z,1011.4
2017-08-19T02:04:37.589Z,1011.4
2017-08-19T02:05:38.382Z,1011.4
2017-08-19T02:06:39.058Z,1011.4
2017-08-19T02:07:39.800Z,1011.4
2017-08-19T02:08:40.472Z,1011.4
2017-08-19T02:09:41.435Z,1011.5
2017-08-19T02:10:42.121Z,1011.4
2017-08-19T02:11:42.794Z,1011.5
2017-08-19T02:12:43.514Z,1011.5
2017-08-19T02:13:44.220Z,1011.5
2017-08-19T02:14:44.932Z,1011.4
2017-08-19T02:15:45.916Z,1011.4
2017-08-19T02:16:46.606Z,1011.4
2017-08-19T02:17:47.360Z,1011.4
2017-08-19T02:18:48.101Z,1011.5
2017-08-19T02:19:48.814Z,1011.5
2017-08-19T02:20:49.578Z,1011.5
2017-08-19T02:21:50.520Z,1011.5
2017-08-19T02:22:51.294Z,1011.5
2017-08-19T02:23:52.336Z,1011.4
2017-08-19T02:24:53.010Z,1011.4
2017-08-19T02:25:54.009Z,1011.4
2017-08-19T02:26:54.729Z,1011.4
2017-08-19T02:27:55.654Z,1011.4
2017-08-19T02:28:56.413Z,1011.4
2017-08-19T02:29:57.183Z,1011.4
2017-08-19T02:30:57.875Z,1011.4
2017-08-19T02:31:58.575Z,1011.4
2017-08-19T02:32:59.280Z,1011.4
2017-08-19T02:34:00.244Z,1011.4
2017-08-19T02:35:00.903Z,1011.4
2017-08-19T02:36:01.756Z,1011.4
2017-08-19T02:37:02.455Z,1011.4
2017-08-19T02:38:03.199Z,1011.3
2017-08-19T02:39:03.889Z,1011.4
2017-08-19T02:40:04.892Z,1011.4
2017-08-19T02:41:05.827Z,1011.4
2017-08-19T02:42:06.537Z,1011.4
2017-08-19T02:43:07.309Z,1011.4
2017-08-19T02:44:08.071Z,1011.4
2017-08-19T02:45:08.805Z,1011.4
2017-08-19T02:46:09.956Z,1011.3
2017-08-19T02:47:10.650Z,1011.4
2017-08-19T02:48:11.347Z,1011.4
2017-08-19T02:49:12.042Z,1011.4
2017-08-19T02:50:12.741Z,1011.4
2017-08-19T02:51:13.636Z,1011.3
2017-08-19T02:52:14.329Z,1011.4
2017-08-19T02:53:15.274Z,1011.4
2017-08-19T02:54:16.057Z,1011.4
2017-08-19T02:55:16.867Z,1011.4
2017-08-19T02:56:17.660Z,1011.4
2017-08-19T02:57:18.352Z,1011.4
2017-08-19T02:58:19.049Z,1011.4
2017-08-19T02:59:20.010Z,1011.4
2017-08-19T03:00:20.751Z,1011.4
2017-08-19T03:01:21.693Z,1011.4
2017-08-19T03:02:22.391Z,1011.4
2017-08-19T03:03:23.158Z,1011.4
2017-08-19T03:04:23.837Z,1011.4
2017-08-19T03:05:24.809Z,1011.4
2017-08-19T03:06:25.546Z,1011.4
2017-08-19T03:07:26.309Z,1011.4
2017-08-19T03:08:27.070Z,1011.5
2017-08-19T03:09:27.749Z,1011.4
2017-08-19T03:10:28.456Z,1011.5
2017-08-19T03:11:29.600Z,1011.5
2017-08-19T03:12:30.281Z,1011.5
2017-08-19T03:13:30.953Z,1011.5
2017-08-19T03:14:31.654Z,1011.5
2017-08-19T03:15:32.329Z,1011.5
2017-08-19T03:16:33.087Z,1011.5
2017-08-19T03:17:34.048Z,1011.5
2017-08-19T03:18:34.745Z,1011.5
2017-08-19T03:19:35.482Z,1011.5
2017-08-19T03:20:36.188Z,1011.5
2017-08-19T03:21:37.148Z,1011.5
2017-08-19T03:22:37.837Z,1011.5
2017-08-19T03:23:38.900Z,1011.5
2017-08-19T03:24:39.617Z,1011.5
2017-08-19T03:25:40.336Z,1011.5
2017-08-19T03:26:41.041Z,1011.5
2017-08-19T03:27:41.792Z,1011.5
2017-08-19T03:28:42.494Z,1011.5
2017-08-19T03:29:43.556Z,1011.5
2017-08-19T03:30:44.228Z,1011.5
2017-08-19T03:31:44.936Z,1011.5
2017-08-19T03:32:45.687Z,1011.5
2017-08-19T03:33:46.365Z,1011.5
2017-08-19T03:34:47.063Z,1011.5
2017-08-19T03:35:48.000Z,1011.5
2017-08-19T03:36:48.681Z,1011.5
2017-08-19T03:37:49.380Z,1011.5
2017-08-19T03:38:50.107Z,1011.5
2017-08-19T03:39:50.851Z,1011.6
2017-08-19T03:40:51.519Z,1011.5
2017-08-19T03:41:52.592Z,1011.5
2017-08-19T03:42:53.326Z,1011.6
2017-08-19T03:43:54.053Z,1011.6
2017-08-19T03:44:54.782Z,1011.6
2017-08-19T03:45:55.520Z,1011.6
2017-08-19T03:46:56.313Z,1011.5
2017-08-19T03:47:57.298Z,1011.5
2017-08-19T03:48:58.036Z,1011.5
2017-08-19T03:49:58.787Z,1011.6
2017-08-19T03:50:59.539Z,1011.6
2017-08-19T03:52:00.357Z,1011.7
2017-08-19T03:53:01.360Z,1011.7
2017-08-19T03:54:02.354Z,1011.7
2017-08-19T03:55:03.099Z,1011.7
2017-08-19T03:56:03.779Z,1011.7
2017-08-19T03:57:04.570Z,1011.7
2017-08-19T03:58:05.254Z,1011.7
2017-08-19T03:59:05.994Z,1011.8
2017-08-19T04:00:06.950Z,1011.8
2017-08-19T04:01:07.619Z,1011.8
2017-08-19T04:02:08.333Z,1011.8
2017-08-19T04:03:09.056Z,1011.8
2017-08-19T04:04:09.793Z,1011.8
2017-08-19T04:05:10.484Z,1011.8
2017-08-19T04:06:11.308Z,1011.8
2017-08-19T04:07:12.224Z,1011.8
2017-08-19T04:08:12.988Z,1011.8
2017-08-19T04:09:13.640Z,1011.8
2017-08-19T04:10:14.323Z,1011.8
2017-08-19T04:11:15.022Z,1011.8
2017-08-19T04:12:15.706Z,1011.8
2017-08-19T04:13:16.682Z,1011.8
2017-08-19T04:14:17.379Z,1011.8
2017-08-19T04:15:18.118Z,1011.8
2017-08-19T04:16:18.939Z,1011.8
2017-08-19T04:17:19.653Z,1011.8
2017-08-19T04:18:20.371Z,1011.8
2017-08-19T04:19:21.445Z,1011.8
2017-08-19T04:20:22.111Z,1011.8
2017-08-19T04:21:23.002Z,1011.8
2017-08-19T04:22:23.729Z,1011.8
2017-08-19T04:23:24.484Z,1011.8
2017-08-19T04:24:25.204Z,1011.8
2017-08-19T04:25:26.165Z,1011.8
2017-08-19T04:26:26.827Z,1011.8
2017-08-19T04:27:27.517Z,1011.8
2017-08-19T04:28:28.218Z,1011.9
2017-08-19T04:29:28.909Z,1011.9
2017-08-19T04:30:29.612Z,1011.9
2017-08-19T04:31:30.527Z,1011.9
2017-08-19T04:32:31.224Z,1011.9
2017-08-19T04:33:31.974Z,1011.9
2017-08-19T04:34:32.662Z,1011.9
2017-08-19T04:35:33.347Z,1012.0
2017-08-19T04:36:34.024Z,1011.9
2017-08-19T04:37:34.784Z,1011.9
2017-08-19T04:38:35.707Z,1011.9
2017-08-19T04:39:36.406Z,1011.9
2017-08-19T04:40:37.108Z,1011.9
2017-08-19T04:41:37.889Z,1011.9
2017-08-19T04:42:38.628Z,1011.9
2017-08-19T04:43:39.387Z,1011.9
2017-08-19T04:44:40.389Z,1011.9
2017-08-19T04:45:41.079Z,1011.9
2017-08-19T04:46:41.917Z,1011.9
2017-08-19T04:47:42.609Z,1011.9
2017-08-19T04:48:43.346Z,1011.9
2017-08-19T04:49:44.018Z,1011.9
2017-08-19T04:50:45.042Z,1011.9
2017-08-19T04:51:45.809Z,1011.9
2017-08-19T04:52:46.535Z,1011.9
2017-08-19T04:53:47.247Z,1011.9
2017-08-19T04:54:47.944Z,1011.9
2017-08-19T04:55:48.635Z,1011.9
2017-08-19T04:56:49.581Z,1011.9
2017-08-19T04:57:50.333Z,1011.9
2017-08-19T04:58:51.035Z,1011.9
2017-08-19T04:59:51.723Z,1011.9
2017-08-19T05:00:52.421Z,1011.9
2017-08-19T05:01:53.153Z,1011.9
2017-08-19T05:02:54.166Z,1011.9
2017-08-19T05:03:54.847Z,1011.9
2017-08-19T05:04:55.538Z,1011.9
2017-08-19T05:05:56.298Z,1012.0
2017-08-19T05:06:56.971Z,1011.9
2017-08-19T05:07:57.679Z,1011.9
2017-08-19T05:08:58.664Z,1011.9
2017-08-19T05:09:59.349Z,1011.9
2017-08-19T05:11:00.067Z,1011.9
2017-08-19T05:12:00.736Z,1011.9
2017-08-19T05:13:01.572Z,1011.9
2017-08-19T05:14:02.273Z,1012.0
2017-08-19T05:15:03.264Z,1012.0
2017-08-19T05:16:04.007Z,1012.0
2017-08-19T05:17:04.753Z,1012.0
2017-08-19T05:18:05.533Z,1011.9
2017-08-19T05:19:06.216Z,1012.0
2017-08-19T05:20:06.881Z,1011.9
2017-08-19T05:21:07.840Z,1011.9
2017-08-19T05:22:08.579Z,1011.9
2017-08-19T05:23:09.277Z,1011.9
2017-08-19T05:24:09.973Z,1011.8
2017-08-19T05:25:10.668Z,1011.8
2017-08-19T05:26:11.421Z,1011.8
2017-08-19T05:27:12.356Z,1011.8
2017-08-19T05:28:13.087Z,1011.9
2017-08-19T05:29:13.752Z,1011.9
2017-08-19T05:30:14.480Z,1011.9
2017-08-19T05:31:15.171Z,1011.9
2017-08-19T05:32:15.920Z,1011.9
2017-08-19T05:33:16.897Z,1011.9
2017-08-19T05:34:17.634Z,1011.9
2017-08-19T05:35:18.328Z,1011.9
2017-08-19T05:36:19.079Z,1012.0
2017-08-19T05:37:19.733Z,1012.0
2017-08-19T05:38:20.425Z,1012.0
2017-08-19T05:39:21.172Z,1012.0
2017-08-19T05:40:22.109Z,1012.0
2017-08-19T05:41:22.828Z,1012.0
2017-08-19T05:42:23.515Z,1012.0
2017-08-19T05:43:24.240Z,1012.0
2017-08-19T05:44:24.965Z,1012.1
2017-08-19T05:45:25.633Z,1012.0
2017-08-19T05:46:26.669Z,1012.1
2017-08-19T05:47:27.359Z,1012.1
2017-08-19T05:48:28.073Z,1012.1
2017-08-19T05:49:28.996Z,1012.1
2017-08-19T05:50:29.708Z,1012.1
2017-08-19T05:51:30.395Z,1012.2
2017-08-19T05:52:31.364Z,1012.2
2017-08-19T05:53:32.064Z,1012.1
2017-08-19T05:54:32.821Z,1012.2
2017-08-19T05:55:33.493Z,1012.1
2017-08-19T05:56:34.190Z,1012.2
2017-08-19T05:57:34.929Z,1012.2
2017-08-19T05:58:35.901Z,1012.2
2017-08-19T05:59:36.650Z,1012.2
2017-08-19T06:00:37.320Z,1012.2
2017-08-19T06:01:38.033Z,1012.2
2017-08-19T06:02:38.732Z,1012.2
2017-08-19T06:03:39.439Z,1012.2
2017-08-19T06:04:40.392Z,1012.2
2017-08-19T06:05:41.121Z,1012.2
2017-08-19T06:06:41.811Z,1012.2
2017-08-19T06:07:42.499Z,1012.3
2017-08-19T06:08:43.189Z,1012.2
2017-08-19T06:09:43.962Z,1012.3
2017-08-19T06:10:44.947Z,1012.3
2017-08-19T06:11:45.617Z,1012.3
2017-08-19T06:12:46.357Z,1012.3
2017-08-19T06:13:47.014Z,1012.2
2017-08-19T06:14:47.728Z,1012.3
2017-08-19T06:15:48.431Z,1012.3
2017-08-19T06:16:49.502Z,1012.3
2017-08-19T06:17:50.198Z,1012.3
2017-08-19T06:18:50.910Z,1012.2
2017-08-19T06:19:51.574Z,1012.3
2017-08-19T06:20:52.260Z,1012.2
2017-08-19T06:21:52.969Z,1012.2
2017-08-19T06:22:53.894Z,1012.3
2017-08-19T06:23:54.592Z,1012.3
2017-08-19T06:24:55.335Z,1012.3
2017-08-19T06:25:56.085Z,1012.3
2017-08-19T06:26:56.777Z,1012.3
2017-08-19T06:27:57.565Z,1012.3
2017-08-19T06:28:58.481Z,1012.3
2017-08-19T06:29:59.216Z,1012.3
2017-08-19T06:30:59.965Z,1012.3
2017-08-19T06:32:00.690Z,1012.3
2017-08-19T06:33:01.416Z,1012.3
2017-08-19T06:34:02.114Z,1012.3
2017-08-19T06:35:03.134Z,1012.3
2017-08-19T06:36:04.128Z,1012.4
2017-08-19T06:37:04.861Z,1012.3
2017-08-19T06:38:05.595Z,1012.3
2017-08-19T06:39:06.303Z,1012.3
2017-08-19T06:40:06.987Z,1012.3
2017-08-19T06:41:08.152Z,1012.3
2017-08-19T06:42:08.860Z,1012.3
2017-08-19T06:43:09.537Z,1012.3
2017-08-19T06:44:10.274Z,1012.4
2017-08-19T06:45:10.978Z,1012.3
2017-08-19T06:46:11.762Z,1012.3
2017-08-19T06:47:12.753Z,1012.4
2017-08-19T06:48:13.452Z,1012.3
2017-08-19T06:49:14.140Z,1012.3
2017-08-19T06:50:14.874Z,1012.3
2017-08-19T06:51:15.714Z,1012.3
2017-08-19T06:52:16.380Z,1012.4
2017-08-19T06:53:17.088Z,1012.3
2017-08-19T06:54:18.091Z,1012.3
2017-08-19T06:55:18.817Z,1012.3
2017-08-19T06:56:19.480Z,1012.3
2017-08-19T06:57:20.241Z,1012.3
2017-08-19T06:58:20.980Z,1012.3
2017-08-19T06:59:21.691Z,1012.3
2017-08-19T07:00:22.700Z,1012.3
2017-08-19T07:01:23.440Z,1012.3
2017-08-19T07:02:24.139Z,1012.3
2017-08-19T07:03:24.822Z,1012.3
2017-08-19T07:04:25.594Z,1012.3
2017-08-19T07:05:26.306Z,1012.2
2017-08-19T07:06:27.297Z,1012.3
2017-08-19T07:07:28.001Z,1012.3
2017-08-19T07:08:28.766Z,1012.3
2017-08-19T07:09:29.441Z,1012.3
2017-08-19T07:10:30.151Z,1012.3
2017-08-19T07:11:30.885Z,1012.3
2017-08-19T07:12:31.972Z,1012.3
2017-08-19T07:13:32.652Z,1012.3
2017-08-19T07:14:33.413Z,1012.4
2017-08-19T07:15:34.101Z,1012.4
2017-08-19T07:16:34.920Z,1012.3
2017-08-19T07:17:35.975Z,1012.4
2017-08-19T07:18:36.917Z,1012.4
2017-08-19T07:19:37.617Z,1012.4
2017-08-19T07:20:38.378Z,1012.4
2017-08-19T07:21:39.220Z,1012.4
2017-08-19T07:22:39.904Z,1012.4
2017-08-19T07:23:40.612Z,1012.4
2017-08-19T07:24:41.622Z,1012.3
2017-08-19T07:25:42.304Z,1012.4
2017-08-19T07:26:42.994Z,1012.4
2017-08-19T07:27:43.691Z,1012.3
2017-08-19T07:28:44.386Z,1012.3
2017-08-19T07:29:45.115Z,1012.3
2017-08-19T07:30:46.084Z,1012.3
2017-08-19T07:31:46.786Z,1012.3
2017-08-19T07:32:47.480Z,1012.3
2017-08-19T07:33:48.180Z,1012.4
2017-08-19T07:34:49.199Z,1012.4
2017-08-19T07:35:49.877Z,1012.4
2017-08-19T07:36:51.083Z,1012.4
2017-08-19T07:37:51.846Z,1012.4
2017-08-19T07:38:52.542Z,1012.4
2017-08-19T07:39:53.283Z,1012.4
2017-08-19T07:40:53.968Z,1012.4
2017-08-19T07:41:54.769Z,1012.4
2017-08-19T07:42:55.750Z,1012.4
2017-08-19T07:43:56.485Z,1012.4
2017-08-19T07:44:57.200Z,1012.4
2017-08-19T07:45:57.885Z,1012.4
2017-08-19T07:46:58.798Z,1012.4
2017-08-19T07:47:59.472Z,1012.4
2017-08-19T07:49:00.451Z,1012.4
2017-08-19T07:50:01.151Z,1012.4
2017-08-19T07:51:01.808Z,1012.4
2017-08-19T07:52:02.508Z,1012.4
2017-08-19T07:53:03.200Z,1012.4
2017-08-19T07:54:03.876Z,1012.4
2017-08-19T07:55:04.887Z,1012.4
2017-08-19T07:56:05.583Z,1012.4
2017-08-19T07:57:06.307Z,1012.3
2017-08-19T07:58:07.007Z,1012.4
2017-08-19T07:59:07.709Z,1012.3
2017-08-19T08:00:08.404Z,1012.4
2017-08-19T08:01:09.421Z,1012.4
2017-08-19T08:02:10.166Z,1012.4
2017-08-19T08:03:10.850Z,1012.3
2017-08-19T08:04:11.535Z,1012.3
2017-08-19T08:05:12.219Z,1012.4
2017-08-19T08:06:12.914Z,1012.4
2017-08-19T08:07:14.276Z,1012.4
2017-08-19T08:08:14.956Z,1012.5
2017-08-19T08:09:15.713Z,1012.4
2017-08-19T08:10:16.411Z,1012.4
2017-08-19T08:11:17.106Z,1012.5
2017-08-19T08:12:17.872Z,1012.5
2017-08-19T08:13:18.799Z,1012.5
2017-08-19T08:14:19.804Z,1012.5
2017-08-19T08:15:20.489Z,1012.5
2017-08-19T08:16:21.174Z,1012.5
2017-08-19T08:17:21.870Z,1012.5
2017-08-19T08:18:22.571Z,1012.6
2017-08-19T08:19:23.558Z,1012.6
2017-08-19T08:20:24.254Z,1012.5
2017-08-19T08:21:24.986Z,1012.5
2017-08-19T08:22:25.725Z,1012.6
2017-08-19T08:23:26.419Z,1012.5
2017-08-19T08:24:27.120Z,1012.6
2017-08-19T08:25:28.128Z,1012.6
2017-08-19T08:26:28.832Z,1012.6
2017-08-19T08:27:29.519Z,1012.5
2017-08-19T08:28:30.213Z,1012.6
2017-08-19T08:29:30.959Z,1012.6
2017-08-19T08:30:31.653Z,1012.6
2017-08-19T08:31:32.676Z,1012.6
2017-08-19T08:32:33.650Z,1012.6
2017-08-19T08:33:34.363Z,1012.6
2017-08-19T08:34:35.046Z,1012.6
2017-08-19T08:35:35.747Z,1012.5
2017-08-19T08:36:36.504Z,1012.6
2017-08-19T08:37:37.206Z,1012.6
2017-08-19T08:38:38.207Z,1012.6
2017-08-19T08:39:38.888Z,1012.6
2017-08-19T08:40:39.584Z,1012.6
2017-08-19T08:41:40.271Z,1012.6
2017-08-19T08:42:41.122Z,1012.6
2017-08-19T08:43:41.835Z,1012.6
2017-08-19T08:44:42.882Z,1012.6
2017-08-19T08:45:43.639Z,1012.6
2017-08-19T08:46:44.687Z,1012.6
2017-08-19T08:47:45.546Z,1012.6
2017-08-19T08:48:46.229Z,1012.6
2017-08-19T08:49:46.932Z,1012.6
2017-08-19T08:50:47.932Z,1012.7
2017-08-19T08:51:48.651Z,1012.6
2017-08-19T08:52:49.328Z,1012.7
2017-08-19T08:53:50.011Z,1012.6
2017-08-19T08:54:50.769Z,1012.7
2017-08-19T08:55:51.463Z,1012.7
2017-08-19T08:56:52.570Z,1012.8
2017-08-19T08:57:53.262Z,1012.7
2017-08-19T08:58:53.959Z,1012.7
2017-08-19T08:59:54.660Z,1012.7
2017-08-19T09:00:55.353Z,1012.7
2017-08-19T09:01:56.044Z,1012.7
2017-08-19T09:02:57.083Z,1012.7
2017-08-19T09:03:57.790Z,1012.8
2017-08-19T09:04:58.545Z,1012.7
2017-08-19T09:05:59.228Z,1012.7
2017-08-19T09:06:59.948Z,1012.7
2017-08-19T09:08:00.645Z,1012.7
2017-08-19T09:09:01.622Z,1012.6
2017-08-19T09:10:02.308Z,1012.6
2017-08-19T09:11:03.021Z,1012.7
2017-08-19T09:12:03.701Z,1012.7
2017-08-19T09:13:04.399Z,1012.7
2017-08-19T09:14:05.175Z,1012.7
2017-08-19T09:15:06.112Z,1012.7
2017-08-19T09:16:06.882Z,1012.7
2017-08-19T09:17:07.586Z,1012.7
2017-08-19T09:18:08.272Z,1012.7
2017-08-19T09:19:08.960Z,1012.7
2017-08-19T09:20:09.640Z,1012.7
2017-08-19T09:21:10.675Z,1012.6
2017-08-19T09:22:11.543Z,1012.7
2017-08-19T09:23:12.230Z,1012.6
2017-08-19T09:24:12.939Z,1012.7
2017-08-19T09:25:13.657Z,1012.7
2017-08-19T09:26:14.403Z,1012.7
2017-08-19T09:27:15.504Z,1012.8
2017-08-19T09:28:16.196Z,1012.7
2017-08-19T09:29:16.870Z,1012.7
2017-08-19T09:30:17.580Z,1012.7
2017-08-19T09:31:18.265Z,1012.8
2017-08-19T09:32:18.954Z,1012.8
2017-08-19T09:33:19.889Z,1012.9
2017-08-19T09:34:20.594Z,1012.8
2017-08-19T09:35:21.298Z,1012.8
2017-08-19T09:36:22.074Z,1012.8
2017-08-19T09:37:22.756Z,1012.9
2017-08-19T09:38:23.529Z,1012.8
2017-08-19T09:39:24.464Z,1012.9
2017-08-19T09:40:25.210Z,1012.9
2017-08-19T09:41:25.901Z,1012.9
2017-08-19T09:42:26.602Z,1012.9
2017-08-19T09:43:27.303Z,1012.9
2017-08-19T09:44:28.003Z,1013.0
2017-08-19T09:45:28.958Z,1013.0
2017-08-19T09:46:29.700Z,1012.9
2017-08-19T09:47:30.397Z,1012.9
2017-08-19T09:48:31.088Z,1013.0
2017-08-19T09:49:31.776Z,1012.9
2017-08-19T09:50:32.532Z,1012.9
2017-08-19T09:51:33.583Z,1013.0
2017-08-19T09:52:34.274Z,1013.0
2017-08-19T09:53:34.963Z,1013.0
2017-08-19T09:54:35.645Z,1013.0
2017-08-19T09:55:36.358Z,1013.0
2017-08-19T09:56:37.051Z,1013.0
2017-08-19T09:57:37.989Z,1013.0
2017-08-19T09:58:38.691Z,1013.0
2017-08-19T09:59:39.393Z,1012.9
2017-08-19T10:00:40.096Z,1013.1
2017-08-19T10:01:40.794Z,1013.0
2017-08-19T10:02:41.560Z,1013.0
2017-08-19T10:03:42.564Z,1013.0
2017-08-19T10:04:43.316Z,1013.0
2017-08-19T10:05:44.025Z,1013.1
2017-08-19T10:06:44.775Z,1013.1
2017-08-19T10:07:45.480Z,1013.1
2017-08-19T10:08:46.191Z,1013.1
2017-08-19T10:09:46.908Z,1013.1
2017-08-19T10:10:47.952Z,1013.1
2017-08-19T10:11:48.719Z,1013.1
2017-08-19T10:12:49.411Z,1013.1
2017-08-19T10:13:50.111Z,1013.1
2017-08-19T10:14:50.855Z,1013.1
2017-08-19T10:15:51.628Z,1013.1
2017-08-19T10:16:52.619Z,1013.1
2017-08-19T10:17:53.336Z,1013.2
2017-08-19T10:18:54.053Z,1013.2
2017-08-19T10:19:54.817Z,1013.1
2017-08-19T10:20:55.686Z,1013.1
2017-08-19T10:21:56.580Z,1013.2
2017-08-19T10:22:57.544Z,1013.1
2017-08-19T10:23:58.245Z,1013.1
2017-08-19T10:24:58.987Z,1013.1
2017-08-19T10:25:59.679Z,1013.1
2017-08-19T10:27:00.380Z,1013.1
2017-08-19T10:28:01.071Z,1013.1
2017-08-19T10:29:02.072Z,1013.1
2017-08-19T10:30:02.753Z,1013.1
2017-08-19T10:31:03.455Z,1013.1
2017-08-19T10:32:04.350Z,1013.1
2017-08-19T10:33:05.057Z,1013.1
2017-08-19T10:34:05.764Z,1013.2
2017-08-19T10:35:06.759Z,1013.2
2017-08-19T10:36:07.454Z,1013.2
2017-08-19T10:37:08.148Z,1013.2
2017-08-19T10:38:08.849Z,1013.2
2017-08-19T10:39:09.538Z,1013.2
2017-08-19T10:40:10.258Z,1013.2
2017-08-19T10:41:11.274Z,1013.1
2017-08-19T10:42:12.008Z,1013.1
2017-08-19T10:43:12.711Z,1013.2
2017-08-19T10:44:13.429Z,1013.2
2017-08-19T10:45:14.156Z,1013.2
2017-08-19T10:46:15.165Z,1013.2
2017-08-19T10:47:16.240Z,1013.2
2017-08-19T10:48:16.926Z,1013.2
2017-08-19T10:49:17.617Z,1013.2
2017-08-19T10:50:18.311Z,1013.2
2017-08-19T10:51:19.063Z,1013.2
2017-08-19T10:52:19.763Z,1013.2
2017-08-19T10:53:20.534Z,1013.2
2017-08-19T10:54:21.537Z,1013.2
2017-08-19T10:55:22.251Z,1013.2
2017-08-19T10:56:22.925Z,1013.2
2017-08-19T10:57:23.778Z,1013.2
2017-08-19T10:58:24.531Z,1013.2
2017-08-19T10:59:25.229Z,1013.2
2017-08-19T11:00:26.212Z,1013.2
2017-08-19T11:01:26.917Z,1013.2
2017-08-19T11:02:27.617Z,1013.2
2017-08-19T11:03:28.304Z,1013.2
2017-08-19T11:04:29.012Z,1013.1
2017-08-19T11:05:29.754Z,1013.2
2017-08-19T11:06:30.764Z,1013.2
2017-08-19T11:07:31.507Z,1013.1
2017-08-19T11:08:32.199Z,1013.1
2017-08-19T11:09:32.891Z,1013.2
2017-08-19T11:10:33.652Z,1013.2
2017-08-19T11:11:34.383Z,1013.2
2017-08-19T11:12:35.401Z,1013.2
2017-08-19T11:13:36.186Z,1013.2
2017-08-19T11:14:36.879Z,1013.2
2017-08-19T11:15:37.585Z,1013.2
2017-08-19T11:16:38.256Z,1013.2
2017-08-19T11:17:38.998Z,1013.3
2017-08-19T11:18:40.056Z,1013.2
2017-08-19T11:19:40.732Z,1013.2
2017-08-19T11:20:41.682Z,1013.3
2017-08-19T11:21:42.390Z,1013.3
2017-08-19T11:22:43.235Z,1013.3
2017-08-19T11:23:43.970Z,1013.3
2017-08-19T11:24:44.904Z,1013.3
2017-08-19T11:25:45.659Z,1013.3
2017-08-19T11:26:46.353Z,1013.3
2017-08-19T11:27:47.253Z,1013.4
2017-08-19T11:28:47.958Z,1013.4
2017-08-19T11:29:48.623Z,1013.4
2017-08-19T11:30:49.865Z,1013.5
2017-08-19T11:31:50.570Z,1013.4
2017-08-19T11:32:51.480Z,1013.4
2017-08-19T11:33:52.197Z,1013.3
2017-08-19T11:34:52.879Z,1013.4
2017-08-19T11:35:53.580Z,1013.4
2017-08-19T11:36:54.283Z,1013.4
2017-08-19T11:37:55.302Z,1013.4
2017-08-19T11:38:56.064Z,1013.3
2017-08-19T11:39:56.822Z,1013.4
2017-08-19T11:40:57.524Z,1013.4
2017-08-19T11:41:58.210Z,1013.4
2017-08-19T11:42:58.901Z,1013.3
2017-08-19T11:43:59.949Z,1013.4
2017-08-19T11:45:00.661Z,1013.4
2017-08-19T11:48:32.511Z,1013.3
2017-08-19T11:49:33.260Z,1013.3
2017-08-19T11:50:34.223Z,1013.3
2017-08-19T11:51:34.933Z,1013.3
2017-08-19T11:52:35.625Z,1013.4
2017-08-19T11:53:36.415Z,1013.4
2017-08-19T11:54:37.119Z,1013.4
2017-08-19T11:55:37.801Z,1013.3
2017-08-19T11:56:38.741Z,1013.3
2017-08-19T11:57:39.453Z,1013.3
2017-08-19T11:58:40.224Z,1013.3
2017-08-19T11:59:40.924Z,1013.3
2017-08-19T12:00:41.621Z,1013.3
2017-08-19T12:01:42.330Z,1013.3
2017-08-19T12:02:43.284Z,1013.3
2017-08-19T12:03:44.006Z,1013.4
2017-08-19T12:04:44.672Z,1013.3
2017-08-19T12:05:45.367Z,1013.3
2017-08-19T12:06:46.071Z,1013.4
2017-08-19T12:07:46.756Z,1013.3
2017-08-19T12:08:47.819Z,1013.3
2017-08-19T12:09:48.898Z,1013.2
2017-08-19T12:10:49.586Z,1013.3
2017-08-19T12:11:50.291Z,1013.3
2017-08-19T12:12:51.003Z,1013.3
2017-08-19T12:13:51.673Z,1013.3
2017-08-19T12:14:52.412Z,1013.3
2017-08-19T12:15:53.362Z,1013.3
2017-08-19T12:16:54.063Z,1013.2
2017-08-19T12:17:54.754Z,1013.3
2017-08-19T12:18:55.678Z,1013.4
2017-08-19T12:19:56.372Z,1013.3
2017-08-19T12:20:57.127Z,1013.3
2017-08-19T12:21:58.066Z,1013.4
2017-08-19T12:22:58.810Z,1013.3
2017-08-19T12:23:59.571Z,1013.4
2017-08-19T12:25:00.382Z,1013.4
2017-08-19T12:26:01.061Z,1013.4
2017-08-19T12:27:01.778Z,1013.4
2017-08-19T12:28:02.745Z,1013.3
2017-08-19T12:29:03.494Z,1013.4
2017-08-19T12:30:04.180Z,1013.4
2017-08-19T12:31:04.870Z,1013.4
2017-08-19T12:32:05.576Z,1013.4
2017-08-19T12:33:06.292Z,1013.5
2017-08-19T12:34:07.484Z,1013.5
2017-08-19T12:35:08.186Z,1013.3
2017-08-19T12:36:08.853Z,1013.4
2017-08-19T12:37:09.637Z,1013.4
2017-08-19T12:38:10.291Z,1013.5
2017-08-19T12:39:11.004Z,1013.5
2017-08-19T12:40:12.138Z,1013.5